createdAt,value
2023-01-09T00:01:01.665Z,1.33
2023-01-09T00:03:28.882Z,1.17
2023-01-09T00:05:56.092Z,1.35
2023-01-09T00:08:23.343Z,1.30
2023-01-09T00:10:50.723Z,1.58
2023-01-09T00:13:18.601Z,2.05
2023-01-09T00:15:46.043Z,1.40
2023-01-09T00:18:13.449Z,1.80
2023-01-09T00:20:40.832Z,1.63
2023-01-09T00:23:08.102Z,1.17
2023-01-09T00:25:35.792Z,1.38
2023-01-09T00:28:03.150Z,1.73
2023-01-09T00:30:30.577Z,1.23
2023-01-09T00:32:57.766Z,1.33
2023-01-09T00:35:27.681Z,1.10
2023-01-09T00:37:55.146Z,1.63
2023-01-09T00:40:22.448Z,1.00
2023-01-09T00:42:53.996Z,0.98
2023-01-09T00:45:29.261Z,1.13
2023-01-09T00:48:06.763Z,1.08
2023-01-09T00:50:35.643Z,0.90
2023-01-09T00:53:09.377Z,1.10
2023-01-09T00:55:38.177Z,0.82
2023-01-09T00:58:06.342Z,1.17
2023-01-09T01:00:33.646Z,0.90
2023-01-09T01:03:01.015Z,0.90
2023-01-09T01:05:46.589Z,0.93
2023-01-09T01:08:15.576Z,1.67
2023-01-09T01:10:43.049Z,1.00
2023-01-09T01:13:11.407Z,1.33
2023-01-09T01:15:40.521Z,0.80
2023-01-09T01:18:08.888Z,0.65
2023-01-09T01:20:36.171Z,0.82
2023-01-09T01:23:03.333Z,0.60
2023-01-09T01:25:30.515Z,2.08
2023-01-09T01:27:57.642Z,1.10
2023-01-09T01:30:24.795Z,1.20
2023-01-09T01:32:51.928Z,0.90
2023-01-09T01:35:19.084Z,1.23
2023-01-09T01:37:46.361Z,0.82
2023-01-09T01:40:13.623Z,1.27
2023-01-09T01:42:47.093Z,1.05
2023-01-09T01:45:16.415Z,1.05
2023-01-09T01:47:53.351Z,0.95
2023-01-09T01:50:41.253Z,0.70
2023-01-09T01:53:14.456Z,1.33
2023-01-09T01:56:07.211Z,1.20
2023-01-09T01:58:38.430Z,1.00
2023-01-09T02:01:05.934Z,1.23
2023-01-09T02:03:34.089Z,1.30
2023-01-09T02:06:04.458Z,0.70
2023-01-09T02:08:32.216Z,1.40
2023-01-09T02:10:59.435Z,1.20
2023-01-09T02:13:28.346Z,1.23
2023-01-09T02:16:29.068Z,1.05
2023-01-09T02:19:37.565Z,0.90
2023-01-09T02:22:33.967Z,0.70
2023-01-09T02:25:22.388Z,1.08
2023-01-09T02:28:11.255Z,0.50
2023-01-09T02:30:49.140Z,1.08
2023-01-09T02:33:22.143Z,0.82
2023-01-09T02:36:10.461Z,0.80
2023-01-09T02:38:56.141Z,0.70
2023-01-09T02:41:49.394Z,0.73
2023-01-09T02:44:28.434Z,0.88
2023-01-09T02:47:17.086Z,0.98
2023-01-09T02:49:48.315Z,0.50
2023-01-09T02:52:39.977Z,0.82
2023-01-09T02:55:28.589Z,0.82
2023-01-09T02:58:05.199Z,0.82
2023-01-09T03:00:56.339Z,1.20
2023-01-09T03:03:54.545Z,0.80
2023-01-09T03:06:49.691Z,0.73
2023-01-09T03:09:23.455Z,0.90
2023-01-09T03:11:57.619Z,0.70
2023-01-09T03:14:27.022Z,1.13
2023-01-09T03:17:00.352Z,1.00
2023-01-09T03:19:30.703Z,1.13
2023-01-09T03:22:00.298Z,0.80
2023-01-09T03:24:27.486Z,0.90
2023-01-09T03:26:55.494Z,0.82
2023-01-09T03:29:22.901Z,0.93
2023-01-09T03:31:50.103Z,1.15
2023-01-09T03:34:17.372Z,1.48
2023-01-09T03:36:44.950Z,1.08
2023-01-09T03:39:12.102Z,1.13
2023-01-09T03:41:39.170Z,1.05
2023-01-09T03:44:06.297Z,1.20
2023-01-09T03:46:33.522Z,1.30
2023-01-09T03:49:00.698Z,1.05
2023-01-09T03:51:27.843Z,0.93
2023-01-09T03:53:55.177Z,1.00
2023-01-09T03:56:22.325Z,1.33
2023-01-09T03:58:50.291Z,1.25
2023-01-09T04:01:17.573Z,1.02
2023-01-09T04:03:44.812Z,1.27
2023-01-09T04:06:11.949Z,1.75
2023-01-09T04:08:39.099Z,1.50
2023-01-09T04:11:06.567Z,1.40
2023-01-09T04:13:33.836Z,2.35
2023-01-09T04:16:01.267Z,1.38
2023-01-09T04:18:28.499Z,1.48
2023-01-09T04:20:55.659Z,1.58
2023-01-09T04:23:22.805Z,1.48
2023-01-09T04:25:49.994Z,1.35
2023-01-09T04:28:17.153Z,1.92
2023-01-09T04:30:44.771Z,2.05
2023-01-09T04:33:11.855Z,1.60
2023-01-09T04:35:39.007Z,1.50
2023-01-09T04:38:06.136Z,2.65
2023-01-09T04:40:33.243Z,1.92
2023-01-09T04:43:00.376Z,1.80
2023-01-09T04:45:27.596Z,1.75
2023-01-09T04:47:54.728Z,1.67
2023-01-09T04:50:21.860Z,1.65
2023-01-09T04:52:48.984Z,1.95
2023-01-09T04:55:16.201Z,2.35
2023-01-09T04:57:43.300Z,1.77
2023-01-09T05:00:12.320Z,2.65
2023-01-09T05:02:40.680Z,2.20
2023-01-09T05:05:11.371Z,1.98
2023-01-09T05:07:39.273Z,1.48
2023-01-09T05:10:07.985Z,1.45
2023-01-09T05:12:36.411Z,2.15
2023-01-09T05:15:05.000Z,2.45
2023-01-09T05:17:32.244Z,1.77
2023-01-09T05:20:00.934Z,2.70
2023-01-09T05:22:29.183Z,2.03
2023-01-09T05:24:56.940Z,2.17
2023-01-09T05:27:25.009Z,1.92
2023-01-09T05:29:52.237Z,2.22
2023-01-09T05:32:19.405Z,3.28
2023-01-09T05:34:46.557Z,2.05
2023-01-09T05:37:13.749Z,1.73
2023-01-09T05:39:40.919Z,1.92
2023-01-09T05:42:08.090Z,1.85
2023-01-09T05:44:35.765Z,1.83
2023-01-09T05:47:03.854Z,2.03
2023-01-09T05:49:31.587Z,2.15
2023-01-09T05:51:58.722Z,2.05
2023-01-09T05:54:25.905Z,2.25
2023-01-09T05:56:53.039Z,2.95
2023-01-09T05:59:20.257Z,2.00
2023-01-09T06:01:47.418Z,2.45
2023-01-09T06:04:14.678Z,2.13
2023-01-09T06:06:42.017Z,2.05
2023-01-09T06:09:09.203Z,2.53
2023-01-09T06:11:38.600Z,2.53
2023-01-09T06:14:06.135Z,2.20
2023-01-09T06:16:33.456Z,2.70
2023-01-09T06:19:00.603Z,2.05
2023-01-09T06:21:29.544Z,2.38
2023-01-09T06:23:56.825Z,1.85
2023-01-09T06:26:27.128Z,2.17
2023-01-09T06:28:57.516Z,1.80
2023-01-09T06:31:25.771Z,1.50
2023-01-09T06:33:53.888Z,1.75
2023-01-09T06:36:22.470Z,2.22
2023-01-09T06:38:52.130Z,2.58
2023-01-09T06:41:19.305Z,1.95
2023-01-09T06:43:46.560Z,2.58
2023-01-09T06:46:13.872Z,1.95
2023-01-09T06:48:41.004Z,2.00
2023-01-09T06:51:08.187Z,1.60
2023-01-09T06:53:35.426Z,2.65
2023-01-09T06:56:02.911Z,1.27
2023-01-09T06:58:30.103Z,1.73
2023-01-09T07:00:59.340Z,2.00
2023-01-09T07:03:26.657Z,2.03
2023-01-09T07:05:53.836Z,1.52
2023-01-09T07:08:21.221Z,1.70
2023-01-09T07:10:48.346Z,1.65
2023-01-09T07:13:15.478Z,2.35
2023-01-09T07:15:42.639Z,2.47
2023-01-09T07:18:09.773Z,1.90
2023-01-09T07:20:41.361Z,1.77
2023-01-09T07:23:12.983Z,2.47
2023-01-09T07:25:44.924Z,2.65
2023-01-09T07:28:12.046Z,2.03
2023-01-09T07:30:39.233Z,2.13
2023-01-09T07:33:06.501Z,2.10
2023-01-09T07:35:33.760Z,2.33
2023-01-09T07:38:00.960Z,1.95
2023-01-09T07:40:28.105Z,2.40
2023-01-09T07:42:55.275Z,2.28
2023-01-09T07:45:22.378Z,2.00
2023-01-09T07:47:49.534Z,1.83
2023-01-09T07:50:16.829Z,1.35
2023-01-09T07:52:46.003Z,1.63
2023-01-09T07:55:15.588Z,1.90
2023-01-09T07:57:43.796Z,2.55
2023-01-09T08:00:11.590Z,1.67
2023-01-09T08:02:38.719Z,3.08
2023-01-09T08:05:06.286Z,3.15
2023-01-09T08:07:33.561Z,2.47
2023-01-09T08:10:00.845Z,1.70
2023-01-09T08:12:31.219Z,1.70
2023-01-09T08:14:59.537Z,2.00
2023-01-09T08:17:26.734Z,1.90
2023-01-09T08:19:53.928Z,2.05
2023-01-09T08:22:21.047Z,2.00
2023-01-09T08:24:48.266Z,1.98
2023-01-09T08:27:15.496Z,2.03
2023-01-09T08:29:42.735Z,2.08
2023-01-09T08:32:09.899Z,2.05
2023-01-09T08:34:37.092Z,1.80
2023-01-09T08:37:04.306Z,2.42
2023-01-09T08:39:31.544Z,1.75
2023-01-09T08:42:17.114Z,2.40
2023-01-09T08:45:02.422Z,2.63
2023-01-09T08:47:33.425Z,2.28
2023-01-09T08:50:01.443Z,2.30
2023-01-09T08:52:30.737Z,2.00
2023-01-09T08:54:57.948Z,2.58
2023-01-09T08:57:25.251Z,2.38
2023-01-09T08:59:52.398Z,2.28
2023-01-09T09:02:19.738Z,2.00
2023-01-09T09:04:48.125Z,3.58
2023-01-09T09:07:15.268Z,2.20
2023-01-09T09:09:42.419Z,1.77
2023-01-09T09:12:09.645Z,1.75
2023-01-09T09:14:55.319Z,1.45
2023-01-09T09:17:22.472Z,2.45
2023-01-09T09:19:49.747Z,1.70
2023-01-09T09:22:16.829Z,2.15
2023-01-09T09:24:43.917Z,2.15
2023-01-09T09:27:11.094Z,2.10
2023-01-09T09:29:38.209Z,1.73
2023-01-09T09:32:05.348Z,2.38
2023-01-09T09:34:32.493Z,1.88
2023-01-09T09:36:59.682Z,1.80
2023-01-09T09:39:26.841Z,1.80
2023-01-09T09:42:30.906Z,2.13
2023-01-09T09:45:33.139Z,1.73
2023-01-09T09:48:18.467Z,2.00
2023-01-09T09:51:03.683Z,1.70
2023-01-09T09:53:39.238Z,2.10
2023-01-09T09:56:11.657Z,1.70
